createdAt,value
2018-05-14T00:02:23.893Z,7.60
2018-05-14T00:04:51.398Z,7.00
2018-05-14T00:07:18.918Z,7.67
2018-05-14T00:09:46.444Z,7.20
2018-05-14T00:12:14.040Z,7.53
2018-05-14T00:14:41.577Z,7.70
2018-05-14T00:17:09.187Z,7.93
2018-05-14T00:19:36.741Z,9.60
2018-05-14T00:22:04.302Z,8.60
2018-05-14T00:24:31.894Z,9.23
2018-05-14T00:26:59.409Z,10.13
2018-05-14T00:29:26.940Z,10.03
2018-05-14T00:31:54.504Z,9.90
2018-05-14T00:34:22.018Z,11.23
2018-05-14T00:36:49.591Z,11.47
2018-05-14T00:39:17.119Z,11.40
2018-05-14T00:41:44.645Z,11.13
2018-05-14T00:44:12.221Z,10.80
2018-05-14T00:46:39.750Z,9.00
2018-05-14T00:49:07.346Z,9.33
2018-05-14T00:51:34.921Z,9.43
2018-05-14T00:54:02.478Z,9.53
2018-05-14T00:56:30.059Z,9.93
2018-05-14T00:58:57.607Z,9.40
2018-05-14T01:01:25.140Z,9.67
2018-05-14T01:03:52.669Z,10.17
2018-05-14T01:06:20.218Z,10.53
2018-05-14T01:08:47.769Z,11.17
2018-05-14T01:11:15.286Z,11.30
2018-05-14T01:13:42.865Z,11.13
2018-05-14T01:16:10.379Z,11.50
2018-05-14T01:18:37.895Z,12.20
2018-05-14T01:21:05.462Z,12.53
2018-05-14T01:23:33.008Z,12.03
2018-05-14T01:26:00.577Z,10.87
2018-05-14T01:28:28.812Z,12.87
2018-05-14T01:30:56.353Z,13.00
2018-05-14T01:33:23.909Z,12.90
2018-05-14T01:35:51.484Z,13.67
2018-05-14T01:38:19.033Z,13.03
2018-05-14T01:40:46.571Z,13.33
2018-05-14T01:43:14.175Z,13.13
2018-05-14T01:45:41.711Z,13.97
2018-05-14T01:48:09.226Z,12.37
2018-05-14T01:50:36.787Z,12.70
2018-05-14T01:53:04.314Z,12.20
2018-05-14T01:55:31.886Z,12.57
2018-05-14T01:57:59.423Z,10.87
2018-05-14T02:00:26.947Z,10.83
2018-05-14T02:02:54.534Z,11.47
2018-05-14T02:05:22.044Z,10.77
2018-05-14T02:07:49.589Z,10.50
2018-05-14T02:10:17.097Z,10.80
2018-05-14T02:12:44.651Z,10.73
2018-05-14T02:15:12.193Z,10.27
2018-05-14T02:17:39.728Z,10.53
2018-05-14T02:20:07.301Z,9.70
2018-05-14T02:22:34.839Z,10.37
2018-05-14T02:25:02.377Z,10.87
2018-05-14T02:27:29.925Z,11.03
2018-05-14T02:29:57.550Z,11.57
2018-05-14T02:32:25.106Z,11.00
2018-05-14T02:34:52.645Z,12.67
2018-05-14T02:37:20.196Z,12.43
2018-05-14T02:39:47.747Z,12.63
2018-05-14T02:42:15.241Z,14.07
2018-05-14T02:44:42.839Z,13.57
2018-05-14T02:47:10.371Z,13.27
2018-05-14T02:49:37.918Z,14.27
2018-05-14T02:52:05.493Z,14.97
2018-05-14T02:54:33.033Z,14.60
2018-05-14T02:57:00.591Z,15.60
2018-05-14T02:59:28.127Z,14.10
2018-05-14T03:01:55.629Z,15.53
2018-05-14T03:04:23.197Z,14.60
2018-05-14T03:06:50.764Z,16.13
2018-05-14T03:09:18.338Z,15.77
2018-05-14T03:11:45.910Z,15.77
2018-05-14T03:14:13.450Z,15.97
2018-05-14T03:16:40.980Z,17.33
2018-05-14T03:19:08.515Z,16.60
2018-05-14T03:21:36.092Z,16.30
2018-05-14T03:24:03.620Z,16.50
2018-05-14T03:26:31.174Z,16.13
2018-05-14T03:28:58.714Z,17.87
2018-05-14T03:31:26.239Z,17.07
2018-05-14T03:33:53.854Z,18.20
2018-05-14T03:36:21.395Z,19.50
2018-05-14T03:38:49.003Z,20.50
2018-05-14T03:41:16.546Z,21.10
2018-05-14T03:43:44.118Z,21.77
2018-05-14T03:46:11.649Z,22.03
2018-05-14T03:48:39.189Z,23.33
2018-05-14T03:51:06.736Z,25.10
2018-05-14T03:53:34.330Z,22.73
2018-05-14T03:56:01.877Z,23.07
2018-05-14T03:58:41.330Z,22.67
2018-05-14T04:01:16.870Z,22.27
2018-05-14T04:06:45.107Z,22.17
2018-05-14T04:09:12.658Z,20.50
2018-05-14T04:11:40.207Z,20.77
2018-05-14T04:14:07.787Z,19.43
2018-05-14T04:16:35.349Z,19.20
2018-05-14T04:19:02.862Z,18.93
2018-05-14T04:21:30.424Z,17.43
2018-05-14T04:23:57.930Z,17.80
2018-05-14T04:26:25.480Z,16.70
2018-05-14T04:28:52.998Z,17.87
2018-05-14T04:31:20.549Z,15.93
2018-05-14T04:33:48.088Z,14.20
2018-05-14T04:36:15.646Z,13.83
2018-05-14T04:38:43.305Z,14.57
2018-05-14T04:41:10.862Z,14.60
2018-05-14T04:43:39.473Z,13.67
2018-05-14T04:46:07.095Z,14.17
2018-05-14T04:48:35.538Z,14.73
2018-05-14T04:51:03.091Z,14.93
2018-05-14T04:53:30.639Z,15.43
2018-05-14T04:55:58.144Z,14.43
2018-05-14T04:58:25.722Z,13.77
2018-05-14T05:00:53.237Z,14.50
2018-05-14T05:03:20.754Z,14.13
2018-05-14T05:05:48.299Z,13.50
2018-05-14T05:08:15.803Z,13.03
2018-05-14T05:10:43.368Z,14.03
2018-05-14T05:13:10.878Z,14.53
2018-05-14T05:15:38.431Z,13.87
2018-05-14T05:18:05.930Z,15.07
2018-05-14T05:20:33.493Z,14.20
2018-05-14T05:23:01.029Z,14.73
2018-05-14T05:25:28.552Z,14.90
2018-05-14T05:27:56.095Z,15.73
2018-05-14T05:30:23.623Z,16.00
2018-05-14T05:32:51.179Z,16.47
2018-05-14T05:35:18.777Z,16.57
2018-05-14T05:37:46.327Z,17.07
2018-05-14T05:40:13.887Z,19.00
2018-05-14T05:42:41.399Z,17.93
2018-05-14T05:45:08.970Z,17.03
2018-05-14T05:47:36.520Z,16.30
2018-05-14T05:50:04.176Z,15.70
2018-05-14T05:52:31.692Z,15.20
2018-05-14T05:54:59.327Z,14.50
2018-05-14T05:57:26.865Z,13.90
2018-05-14T05:59:54.574Z,13.70
2018-05-14T06:02:22.151Z,12.10
2018-05-14T06:04:50.121Z,12.47
2018-05-14T06:07:17.670Z,13.47
2018-05-14T06:09:45.182Z,12.33
2018-05-14T06:12:12.719Z,13.43
2018-05-14T06:14:40.218Z,11.13
2018-05-14T06:17:07.741Z,12.53
2018-05-14T06:19:35.259Z,11.77
2018-05-14T06:22:02.749Z,11.33
2018-05-14T06:24:30.311Z,12.70
2018-05-14T06:26:57.853Z,12.07
2018-05-14T06:29:25.397Z,13.57
2018-05-14T06:31:52.897Z,12.87
2018-05-14T06:34:20.406Z,10.87
2018-05-14T06:36:47.935Z,11.07
2018-05-14T06:39:15.439Z,10.33
2018-05-14T06:41:43.127Z,12.43
2018-05-14T06:44:11.534Z,11.97
2018-05-14T06:46:39.039Z,13.00
2018-05-14T06:49:06.564Z,13.73
2018-05-14T06:51:34.070Z,12.70
2018-05-14T06:54:01.599Z,13.60
2018-05-14T06:56:29.093Z,13.20
2018-05-14T06:58:57.221Z,13.53
2018-05-14T07:01:24.746Z,14.30
2018-05-14T07:03:52.244Z,14.13
2018-05-14T07:06:19.790Z,14.93
2018-05-14T07:08:47.290Z,16.27
2018-05-14T07:11:14.785Z,16.10
2018-05-14T07:13:42.314Z,15.40
2018-05-14T07:16:09.816Z,17.43
2018-05-14T07:18:37.351Z,15.30
2018-05-14T07:21:04.855Z,13.47
2018-05-14T07:23:32.353Z,13.10
2018-05-14T07:25:59.934Z,13.40
2018-05-14T07:28:27.414Z,14.27
2018-05-14T07:30:54.946Z,13.80
2018-05-14T07:33:22.448Z,13.67
2018-05-14T07:35:49.954Z,14.10
2018-05-14T07:38:17.483Z,14.33
2018-05-14T07:40:44.981Z,14.77
2018-05-14T07:43:12.507Z,15.33
2018-05-14T07:45:40.069Z,14.27
2018-05-14T07:48:07.533Z,14.07
2018-05-14T07:50:35.062Z,14.80
2018-05-14T07:53:02.570Z,14.10
2018-05-14T07:55:30.105Z,15.63
2018-05-14T07:57:57.602Z,14.07
2018-05-14T08:00:25.201Z,17.27
2018-05-14T08:02:52.662Z,20.90
2018-05-14T08:05:20.174Z,18.83
2018-05-14T08:07:47.700Z,21.23
2018-05-14T08:10:15.207Z,22.70
2018-05-14T08:12:42.728Z,23.37
2018-05-14T08:15:10.256Z,22.63
2018-05-14T08:17:37.755Z,24.03
2018-05-14T08:20:05.281Z,23.40
2018-05-14T08:22:32.777Z,23.50
2018-05-14T08:25:00.273Z,20.60
2018-05-14T08:27:27.795Z,21.13
2018-05-14T08:29:55.290Z,21.17
2018-05-14T08:32:22.825Z,19.60
2018-05-14T08:34:50.335Z,19.03
2018-05-14T08:37:17.834Z,15.40
2018-05-14T08:39:45.362Z,17.13
2018-05-14T08:42:12.866Z,18.17
2018-05-14T08:44:40.399Z,17.87
2018-05-14T08:47:07.909Z,18.80
2018-05-14T08:49:35.410Z,18.80
2018-05-14T08:52:03.925Z,20.47
2018-05-14T08:54:31.514Z,21.03
2018-05-14T08:56:58.990Z,20.50
2018-05-14T08:59:26.485Z,20.47
2018-05-14T09:01:53.986Z,20.67
2018-05-14T09:04:21.737Z,19.90
2018-05-14T09:06:49.040Z,21.27
2018-05-14T09:09:16.571Z,19.27
2018-05-14T09:11:44.075Z,21.17
2018-05-14T09:14:11.578Z,20.13
2018-05-14T09:16:39.104Z,20.03
2018-05-14T09:19:06.614Z,21.37
2018-05-14T09:21:34.152Z,21.40
2018-05-14T09:24:01.663Z,21.83
2018-05-14T09:26:29.166Z,23.10
2018-05-14T09:28:56.931Z,21.13
2018-05-14T09:31:24.463Z,19.67
2018-05-14T09:33:51.982Z,21.07
2018-05-14T09:36:19.487Z,21.83
2018-05-14T09:38:46.990Z,21.27
2018-05-14T09:41:14.514Z,20.67
2018-05-14T09:43:42.018Z,24.53
2018-05-14T09:46:09.550Z,24.57
2018-05-14T09:48:37.051Z,24.10
2018-05-14T09:51:04.557Z,23.33
2018-05-14T09:53:32.086Z,24.67
2018-05-14T09:55:59.590Z,22.83
2018-05-14T09:58:27.119Z,22.43
2018-05-14T10:00:54.631Z,21.47
2018-05-14T10:03:22.135Z,21.50
2018-05-14T10:05:49.666Z,21.37
2018-05-14T10:08:17.176Z,21.73
2018-05-14T10:10:44.712Z,22.60
2018-05-14T10:13:12.237Z,21.30
2018-05-14T10:15:39.940Z,22.50
2018-05-14T10:18:07.482Z,23.20
2018-05-14T10:20:35.010Z,22.50
2018-05-14T10:23:02.508Z,21.67
2018-05-14T10:25:30.270Z,23.67
2018-05-14T10:27:57.789Z,23.13
2018-05-14T10:30:25.296Z,24.60
2018-05-14T10:32:52.843Z,24.97
2018-05-14T10:35:20.346Z,24.40
2018-05-14T10:37:47.855Z,24.43
2018-05-14T10:40:15.383Z,25.10
2018-05-14T10:42:42.889Z,23.67
2018-05-14T10:45:10.416Z,22.77
2018-05-14T10:47:37.919Z,21.77
2018-05-14T10:50:05.473Z,22.03
2018-05-14T10:52:32.998Z,26.87
2018-05-14T10:55:00.511Z,31.77
2018-05-14T10:57:28.041Z,28.37
2018-05-14T10:59:55.539Z,26.70
2018-05-14T11:02:23.047Z,27.60
2018-05-14T11:04:50.570Z,28.03
2018-05-14T11:07:18.082Z,26.30
2018-05-14T11:09:45.609Z,27.87
2018-05-14T11:12:13.101Z,28.10
2018-05-14T11:14:40.661Z,28.07
2018-05-14T11:17:08.186Z,29.37
2018-05-14T11:19:35.685Z,28.47
2018-05-14T11:22:03.214Z,28.43
2018-05-14T11:24:30.721Z,28.30
2018-05-14T11:26:58.217Z,26.40
2018-05-14T11:29:25.741Z,26.50
2018-05-14T11:31:53.243Z,27.47
2018-05-14T11:34:20.767Z,25.77
2018-05-14T11:36:48.269Z,25.70
2018-05-14T11:39:15.777Z,26.43
2018-05-14T11:41:43.322Z,26.23
2018-05-14T11:44:10.824Z,24.67
2018-05-14T11:46:38.350Z,26.53
2018-05-14T11:49:05.851Z,21.50
2018-05-14T11:51:33.362Z,21.80
2018-05-14T11:54:00.876Z,21.73
2018-05-14T11:56:28.386Z,23.60
2018-05-14T11:58:55.907Z,21.80
2018-05-14T12:01:23.402Z,21.60
2018-05-14T12:03:50.893Z,21.13
2018-05-14T12:06:18.429Z,21.87
2018-05-14T12:08:45.921Z,22.47
2018-05-14T12:11:13.426Z,22.00
2018-05-14T12:13:40.949Z,22.27
2018-05-14T12:16:08.578Z,23.43
2018-05-14T12:18:36.012Z,23.13
2018-05-14T12:21:03.511Z,23.53
2018-05-14T12:23:31.081Z,23.63
2018-05-14T12:25:58.608Z,23.30
2018-05-14T12:28:26.104Z,22.73
2018-05-14T12:30:53.638Z,24.73
2018-05-14T12:33:21.156Z,23.63
2018-05-14T12:35:48.663Z,21.73
2018-05-14T12:38:16.192Z,22.67
2018-05-14T12:40:43.695Z,23.20
2018-05-14T12:43:11.238Z,24.33
2018-05-14T12:45:38.744Z,24.30
2018-05-14T12:48:06.256Z,24.23
2018-05-14T12:50:33.780Z,24.73
2018-05-14T12:53:01.287Z,24.27
2018-05-14T12:55:28.847Z,22.40
2018-05-14T12:57:56.359Z,21.13
2018-05-14T13:00:23.859Z,21.33
2018-05-14T13:02:51.387Z,21.10
2018-05-14T13:05:18.892Z,19.53
2018-05-14T13:07:46.418Z,19.97
2018-05-14T13:10:13.923Z,20.57
2018-05-14T13:12:41.423Z,20.67
2018-05-14T13:15:08.954Z,19.43
2018-05-14T13:17:36.453Z,19.83
2018-05-14T13:20:03.970Z,19.93
2018-05-14T13:22:31.466Z,18.97
2018-05-14T13:24:58.970Z,19.30
2018-05-14T13:27:26.498Z,20.00
2018-05-14T13:29:54.006Z,20.27
2018-05-14T13:32:21.538Z,17.50
2018-05-14T13:34:49.037Z,18.50
2018-05-14T13:37:16.552Z,19.37
2018-05-14T13:39:44.082Z,15.43
2018-05-14T13:42:11.653Z,16.77
2018-05-14T13:44:39.181Z,16.97
2018-05-14T13:47:06.702Z,17.03
2018-05-14T13:49:34.207Z,15.00
2018-05-14T13:52:01.737Z,12.13
2018-05-14T13:54:29.243Z,7.40
2018-05-14T13:56:56.765Z,9.33
2018-05-14T13:59:24.262Z,7.43
2018-05-14T14:01:51.764Z,7.70
2018-05-14T14:04:19.281Z,7.17
2018-05-14T14:06:46.765Z,6.90
2018-05-14T14:09:14.288Z,7.23
2018-05-14T14:11:41.786Z,7.20
2018-05-14T14:14:09.286Z,7.03
2018-05-14T14:16:36.811Z,6.97
2018-05-14T14:19:04.310Z,7.53
2018-05-14T14:21:31.830Z,6.57
2018-05-14T14:23:59.647Z,7.17
2018-05-14T14:26:26.834Z,6.93
2018-05-14T14:28:54.366Z,6.67
2018-05-14T14:31:21.871Z,7.20
2018-05-14T14:33:49.399Z,6.70
2018-05-14T14:36:17.022Z,6.50
2018-05-14T14:38:44.444Z,6.30
2018-05-14T14:41:11.971Z,6.93
2018-05-14T14:43:39.475Z,6.27
2018-05-14T14:46:07.007Z,5.63
2018-05-14T14:48:34.518Z,6.27
2018-05-14T14:51:02.036Z,6.50
2018-05-14T14:53:29.655Z,7.00
2018-05-14T14:55:57.106Z,7.10
2018-05-14T14:58:24.643Z,5.67
2018-05-14T15:00:52.136Z,4.90
2018-05-14T15:03:19.654Z,5.70
2018-05-14T15:05:47.179Z,5.80
2018-05-14T15:08:14.679Z,5.23
2018-05-14T15:10:42.216Z,4.80
2018-05-14T15:13:09.720Z,4.50
2018-05-14T15:15:37.208Z,3.90
2018-05-14T15:18:04.728Z,3.70
2018-05-14T15:20:32.218Z,3.50
2018-05-14T15:22:59.745Z,3.83
2018-05-14T15:25:27.239Z,3.93
2018-05-14T15:27:54.725Z,3.77
2018-05-14T15:30:22.237Z,3.80
2018-05-14T15:32:49.727Z,3.77
2018-05-14T15:35:17.248Z,4.17
2018-05-14T15:37:44.746Z,4.40
2018-05-14T15:40:12.266Z,4.07
2018-05-14T15:42:40.762Z,4.30
2018-05-14T15:45:08.253Z,4.10
2018-05-14T15:47:35.780Z,3.70
2018-05-14T15:50:03.353Z,4.50
2018-05-14T15:52:30.803Z,3.60
2018-05-14T15:54:58.322Z,3.67
2018-05-14T15:57:25.804Z,3.67
2018-05-14T15:59:53.317Z,3.77
2018-05-14T16:02:20.803Z,3.60
2018-05-14T16:04:48.298Z,3.83
2018-05-14T16:07:15.807Z,4.10
2018-05-14T16:09:43.296Z,4.00
2018-05-14T16:12:10.890Z,4.00
2018-05-14T16:14:38.387Z,4.17
2018-05-14T16:17:05.904Z,4.13
2018-05-14T16:19:33.421Z,4.67
2018-05-14T16:22:00.915Z,4.20
2018-05-14T16:24:28.438Z,3.97
2018-05-14T16:26:55.934Z,4.20
2018-05-14T16:29:23.431Z,4.77
2018-05-14T16:31:50.950Z,3.83
2018-05-14T16:34:18.441Z,4.40
2018-05-14T16:36:45.966Z,4.20
2018-05-14T16:39:13.458Z,4.90
2018-05-14T16:41:40.970Z,4.50
2018-05-14T16:44:08.533Z,4.10
2018-05-14T16:46:36.027Z,3.90
2018-05-14T16:49:03.537Z,4.43
2018-05-14T16:51:31.047Z,4.30
2018-05-14T16:53:58.543Z,4.30
2018-05-14T16:56:26.049Z,4.63
2018-05-14T16:58:53.539Z,4.00
2018-05-14T17:01:21.069Z,4.43
2018-05-14T17:03:48.557Z,4.10
2018-05-14T17:06:16.058Z,4.20
2018-05-14T17:08:43.569Z,4.57
2018-05-14T17:11:11.063Z,4.73
2018-05-14T17:13:38.598Z,4.80
2018-05-14T17:16:06.099Z,4.70
2018-05-14T17:18:33.594Z,4.50
2018-05-14T17:21:01.109Z,4.27
2018-05-14T17:23:28.610Z,4.50
2018-05-14T17:25:56.139Z,4.63
2018-05-14T17:28:23.642Z,4.57
2018-05-14T17:30:51.134Z,4.30
2018-05-14T17:33:18.887Z,3.87
2018-05-14T17:35:46.391Z,4.07
2018-05-14T17:38:13.894Z,4.13
2018-05-14T17:40:41.407Z,4.60
2018-05-14T17:43:08.899Z,3.90
2018-05-14T17:45:36.390Z,4.17
2018-05-14T17:48:03.905Z,3.90
2018-05-14T17:50:31.406Z,4.50
2018-05-14T17:52:58.996Z,4.33
2018-05-14T17:55:26.434Z,4.00
2018-05-14T17:57:53.943Z,4.00
2018-05-14T18:00:21.458Z,4.07
2018-05-14T18:02:49.792Z,4.00
2018-05-14T18:05:17.353Z,4.10
2018-05-14T18:07:44.881Z,4.00
2018-05-14T18:10:12.396Z,4.30
2018-05-14T18:12:39.928Z,3.37
2018-05-14T18:15:07.419Z,3.97
2018-05-14T18:17:35.051Z,4.40
2018-05-14T18:20:07.960Z,4.23
2018-05-14T18:22:40.925Z,4.33
2018-05-14T18:25:13.935Z,4.67
2018-05-14T18:27:47.074Z,4.20
2018-05-14T18:30:14.600Z,4.23
2018-05-14T18:35:54.278Z,4.50
2018-05-14T18:38:21.778Z,4.00
2018-05-14T18:40:49.302Z,4.20
2018-05-14T18:43:16.793Z,4.40
2018-05-14T18:45:44.277Z,4.17
2018-05-14T18:48:11.803Z,4.13
2018-05-14T18:50:39.301Z,4.13
2018-05-14T18:53:06.826Z,4.47
2018-05-14T18:55:34.326Z,4.60
2018-05-14T18:58:01.824Z,4.50
2018-05-14T19:00:29.337Z,4.50
2018-05-14T19:02:56.843Z,4.17
2018-05-14T19:05:24.367Z,4.53
2018-05-14T19:07:51.844Z,4.80
2018-05-14T19:10:25.073Z,4.50
2018-05-14T19:12:52.599Z,4.27
2018-05-14T19:15:25.837Z,4.37
2018-05-14T19:17:58.892Z,4.57
2018-05-14T19:20:26.401Z,4.93
2018-05-14T19:22:59.414Z,4.63
2018-05-14T19:25:27.034Z,4.43
2018-05-14T19:28:00.242Z,4.63
2018-05-14T19:30:27.767Z,4.53
2018-05-14T19:32:55.283Z,4.67
2018-05-14T19:35:28.421Z,4.03
2018-05-14T19:37:55.911Z,4.47
2018-05-14T19:40:29.005Z,4.30
2018-05-14T19:42:56.481Z,4.63
2018-05-14T19:45:23.988Z,4.20
2018-05-14T19:47:51.519Z,3.77
2018-05-14T19:50:19.067Z,4.30
2018-05-14T19:52:46.605Z,4.53
2018-05-14T19:55:14.119Z,4.13
2018-05-14T19:57:41.631Z,4.33
2018-05-14T20:00:09.182Z,4.63
2018-05-14T20:02:36.681Z,4.53
2018-05-14T20:05:04.233Z,4.50
2018-05-14T20:07:31.747Z,4.80
2018-05-14T20:09:59.338Z,4.80
2018-05-14T20:12:26.882Z,4.63
2018-05-14T20:14:54.401Z,4.97
2018-05-14T20:17:21.958Z,4.90
2018-05-14T20:19:49.505Z,4.83
2018-05-14T20:22:17.026Z,4.13
2018-05-14T20:24:44.653Z,4.90
2018-05-14T20:27:12.183Z,4.50
2018-05-14T20:29:39.749Z,4.80
2018-05-14T20:32:07.274Z,4.70
2018-05-14T20:34:34.802Z,4.67
2018-05-14T20:37:02.340Z,4.60
2018-05-14T20:39:29.889Z,4.83
2018-05-14T20:41:57.405Z,3.80
2018-05-14T20:44:24.946Z,4.63
2018-05-14T20:46:52.442Z,5.07
2018-05-14T20:49:19.990Z,4.93
2018-05-14T20:51:47.514Z,3.97
2018-05-14T20:54:15.382Z,5.60
2018-05-14T20:56:42.921Z,5.03
2018-05-14T20:59:10.446Z,5.43
2018-05-14T21:01:38.006Z,5.63
2018-05-14T21:04:05.533Z,5.60
2018-05-14T21:06:33.091Z,5.80
2018-05-14T21:09:00.654Z,5.77
2018-05-14T21:11:28.187Z,5.60
2018-05-14T21:13:55.764Z,5.83
2018-05-14T21:16:23.286Z,5.20
2018-05-14T21:18:50.830Z,5.23
2018-05-14T21:21:18.345Z,5.70
2018-05-14T21:23:45.854Z,6.00
2018-05-14T21:26:13.406Z,6.10
2018-05-14T21:28:40.906Z,6.30
2018-05-14T21:31:08.429Z,5.90
2018-05-14T21:33:36.237Z,6.07
2018-05-14T21:36:03.774Z,6.20
2018-05-14T21:38:31.294Z,5.70
2018-05-14T21:40:58.800Z,5.93
2018-05-14T21:43:26.378Z,5.83
2018-05-14T21:45:53.917Z,6.07
2018-05-14T21:48:21.442Z,6.17
2018-05-14T21:50:48.981Z,5.60
2018-05-14T21:53:17.967Z,6.13
2018-05-14T21:55:45.545Z,6.27
2018-05-14T21:58:13.066Z,6.07
2018-05-14T22:00:40.620Z,6.07
2018-05-14T22:03:08.269Z,6.60
2018-05-14T22:08:32.238Z,5.97
2018-05-14T22:10:59.818Z,6.73
2018-05-14T22:13:27.331Z,6.23
2018-05-14T22:15:54.874Z,6.23
2018-05-14T22:18:22.440Z,5.60
2018-05-14T22:20:49.986Z,6.87
2018-05-14T22:23:17.537Z,7.10
2018-05-14T22:25:45.108Z,6.03
2018-05-14T22:28:12.655Z,6.20
2018-05-14T22:30:40.188Z,6.87
2018-05-14T22:33:07.735Z,6.53
2018-05-14T22:35:35.314Z,6.90
2018-05-14T22:38:03.103Z,6.87
2018-05-14T22:40:30.661Z,6.43
2018-05-14T22:42:58.217Z,6.63
2018-05-14T22:45:25.784Z,7.30
2018-05-14T22:47:53.374Z,6.50
2018-05-14T22:50:20.890Z,7.20
2018-05-14T22:52:48.409Z,6.53
2018-05-14T22:55:15.957Z,6.27
2018-05-14T22:57:43.478Z,6.97
2018-05-14T23:00:11.043Z,7.30
2018-05-14T23:02:38.593Z,7.10
2018-05-14T23:05:06.146Z,6.83
2018-05-14T23:07:33.678Z,6.50
2018-05-14T23:10:01.206Z,7.23
2018-05-14T23:12:28.741Z,6.77
2018-05-14T23:14:56.286Z,6.87
2018-05-14T23:17:23.810Z,7.10
2018-05-14T23:19:51.342Z,6.63
2018-05-14T23:22:18.944Z,7.20
2018-05-14T23:24:46.512Z,7.13
2018-05-14T23:27:14.043Z,6.83
2018-05-14T23:29:41.637Z,7.40
2018-05-14T23:32:09.176Z,7.13
2018-05-14T23:34:36.694Z,7.10
2018-05-14T23:37:04.222Z,7.10
2018-05-14T23:39:31.746Z,7.37
2018-05-14T23:41:59.253Z,7.20
2018-05-14T23:44:26.812Z,6.77
2018-05-14T23:46:54.371Z,6.90
2018-05-14T23:49:22.005Z,6.60
2018-05-14T23:51:49.522Z,6.73
2018-05-14T23:54:17.058Z,6.37
2018-05-14T23:56:44.652Z,6.63
2018-05-14T23:59:12.176Z,6.50
